Time;durP1;ratioP1;P1;durP2;ratioP2;P2;SDS_P1;SDS_P2;PMS_P1;PMS_P2;Temp;Humidity;BMP_temperature;BMP_pressure;BME280_temperature;BME280_humidity;BME280_pressure;Samples;Min_cycle;Max_cycle;Signal;HPM_P1;HPM_P2
2023/10/12 00:02:48;;;;;;;2.30;1.90;;;;;;;17.58;49.29;98091.70;105175;1264;66155;-38
2023/10/12 00:05:18;;;;;;;3.40;2.20;;;;;;;17.56;49.27;98087.80;105298;1261;72327;-39
2023/10/12 00:07:49;;;;;;;2.20;1.80;;;;;;;17.57;49.31;98087.80;105398;1263;60433;-39
2023/10/12 00:12:47;;;;;;;2.30;1.90;;;;;;;17.56;49.32;98080.05;105545;1261;73533;-39
2023/10/12 00:17:45;;;;;;;2.50;2.00;;;;;;;17.56;49.26;98078.71;105499;1260;72641;-38
2023/10/12 00:22:50;;;;;;;2.10;1.90;;;;;;;17.56;49.26;98074.84;105266;1261;60450;-37
2023/10/12 00:25:17;;;;;;;3.10;2.10;;;;;;;17.55;49.28;98072.35;105283;1263;73782;-37
2023/10/12 00:27:44;;;;;;;2.20;1.80;;;;;;;17.55;49.32;98070.88;105103;1263;64903;-37
2023/10/12 00:30:14;;;;;;;1.90;1.70;;;;;;;17.55;49.30;98070.40;105040;1259;72518;-40
2023/10/12 00:32:41;;;;;;;2.50;2.10;;;;;;;17.55;49.25;98065.84;105082;1261;60551;-38
2023/10/12 00:35:10;;;;;;;3.50;2.30;;;;;;;17.55;49.25;98066.61;105247;1260;60440;-38
2023/10/12 00:37:40;;;;;;;2.30;2.10;;;;;;;17.55;49.28;98066.77;105246;1263;73699;-38
2023/10/12 00:42:55;;;;;;;2.20;1.70;;;;;;;17.55;49.28;98062.44;105168;1260;72669;-38
2023/10/12 00:45:29;;;;;;;2.40;2.00;;;;;;;17.55;49.25;98058.40;105120;1263;60454;-38
2023/10/12 00:48:01;;;;;;;3.10;2.30;;;;;;;17.54;49.23;98052.74;105110;1260;60358;-38
2023/10/12 00:50:29;;;;;;;2.10;1.80;;;;;;;17.55;49.32;98055.38;105067;1264;73624;-40
2023/10/12 00:52:58;;;;;;;3.40;2.00;;;;;;;17.54;49.24;98054.27;105213;1263;66223;-38
2023/10/12 00:55:37;;;;;;;2.40;2.10;;;;;;;17.54;49.26;98054.98;105197;1261;72633;-38
2023/10/12 00:58:14;;;;;;;2.30;1.90;;;;;;;17.54;49.24;98052.34;105018;1267;60454;-38
2023/10/12 01:01:03;;;;;;;2.20;1.80;;;;;;;17.54;49.24;98052.66;105052;1260;60492;-39
2023/10/12 01:03:31;;;;;;;2.60;2.20;;;;;;;17.53;49.26;98055.10;105115;1264;73613;-42
2023/10/12 01:08:46;;;;;;;1.90;1.70;;;;;;;17.53;49.33;98058.20;105042;1259;72583;-38
2023/10/12 01:11:20;;;;;;;2.90;2.20;;;;;;;17.54;49.25;98059.54;105163;1264;60367;-41
2023/10/12 01:13:49;;;;;;;3.10;1.90;;;;;;;17.54;49.16;98058.55;105329;1259;60531;-41
2023/10/12 01:16:23;;;;;;;2.10;1.90;;;;;;;17.53;49.29;98052.71;105261;1264;73812;-39
2023/10/12 01:19:05;;;;;;;2.50;2.00;;;;;;;17.54;49.26;98050.93;105363;1264;64924;-40
2023/10/12 01:21:35;;;;;;;2.20;2.00;;;;;;;17.54;49.24;98054.34;105711;1261;72529;-43
2023/10/12 01:24:11;;;;;;;2.60;2.20;;;;;;;17.54;49.21;98057.69;105092;1259;60456;-39
2023/10/12 01:26:38;;;;;;;2.50;2.10;;;;;;;17.53;49.20;98053.33;105359;1263;60445;-39
2023/10/12 01:29:10;;;;;;;2.20;1.80;;;;;;;17.53;49.19;98050.84;105189;1259;73610;-40
2023/10/12 01:31:37;;;;;;;2.60;1.90;;;;;;;17.53;49.21;98050.77;105703;1263;66295;-41
2023/10/12 01:34:04;;;;;;;2.20;1.80;;;;;;;17.53;49.25;98048.98;105169;1261;72612;-40
2023/10/12 01:36:32;;;;;;;2.00;1.70;;;;;;;17.53;49.24;98045.73;105767;1263;60427;-41
2023/10/12 01:39:12;;;;;;;2.50;2.00;;;;;;;17.53;49.12;98041.84;105141;1259;60544;-40
2023/10/12 01:41:42;;;;;;;2.00;1.70;;;;;;;17.53;49.18;98044.65;105616;1260;73808;-40
2023/10/12 01:44:12;;;;;;;2.10;1.80;;;;;;;17.53;49.22;98045.27;105185;1262;67190;-39
2023/10/12 01:46:40;;;;;;;2.20;1.70;;;;;;;17.53;49.21;98041.40;105474;1260;72452;-38
2023/10/12 01:49:08;;;;;;;2.60;2.00;;;;;;;17.54;49.17;98039.02;105027;1261;60445;-38
2023/10/12 01:51:41;;;;;;;4.40;1.80;;;;;;;17.53;49.19;98038.38;105708;1259;60349;-38
2023/10/12 01:54:12;;;;;;;2.70;2.10;;;;;;;17.53;49.16;98036.11;105060;1261;73601;-38
2023/10/12 01:56:38;;;;;;;2.10;1.80;;;;;;;17.53;49.18;98039.52;105475;1260;65620;-38
2023/10/12 01:59:07;;;;;;;2.60;1.90;;;;;;;17.52;49.17;98035.10;105386;1260;72566;-38
2023/10/12 02:01:35;;;;;;;2.30;1.80;;;;;;;17.52;49.16;98031.70;105677;1264;60493;-39
2023/10/12 02:04:02;;;;;;;2.20;1.70;;;;;;;17.52;49.19;98037.27;105232;1262;60518;-38
2023/10/12 02:06:30;;;;;;;2.20;1.90;;;;;;;17.53;49.18;98035.34;105765;1260;74072;-40
2023/10/12 02:09:08;;;;;;;2.10;1.90;;;;;;;17.53;49.17;98036.44;105155;1264;66194;-39
2023/10/12 02:11:45;;;;;;;2.40;1.80;;;;;;;17.52;49.21;98032.61;105597;1260;72448;-40
2023/10/12 02:14:15;;;;;;;2.60;1.90;;;;;;;17.53;49.15;98030.31;105327;1262;60448;-40
2023/10/12 02:16:53;;;;;;;2.20;1.80;;;;;;;17.52;49.17;98026.81;105774;1260;60451;-38
2023/10/12 02:19:31;;;;;;;3.20;1.90;;;;;;;17.52;49.17;98024.58;105510;1260;73556;-38
2023/10/12 02:22:01;;;;;;;2.50;1.80;;;;;;;17.52;49.16;98023.09;105437;1262;64816;-38
2023/10/12 02:24:28;;;;;;;2.20;1.70;;;;;;;17.52;49.12;98023.63;105262;1259;72336;-38
2023/10/12 02:26:55;;;;;;;2.60;1.70;;;;;;;17.52;49.15;98018.91;105083;1259;60450;-39
2023/10/12 02:29:22;;;;;;;3.30;2.30;;;;;;;17.52;49.20;98019.23;105122;1260;60540;-39
2023/10/12 02:34:27;;;;;;;2.30;1.60;;;;;;;17.52;49.19;98017.30;105163;1264;66287;-38
2023/10/12 02:39:32;;;;;;;2.20;1.90;;;;;;;17.52;49.05;98019.54;105126;1263;60412;-38
2023/10/12 02:42:17;;;;;;;1.80;1.70;;;;;;;17.51;49.08;98020.05;105365;1261;60390;-38
2023/10/12 02:47:23;;;;;;;3.60;2.00;;;;;;;17.51;49.09;98021.40;105294;1262;65629;-38
2023/10/12 02:49:59;;;;;;;2.20;1.90;;;;;;;17.51;49.14;98025.73;105160;1264;72633;-39
2023/10/12 02:52:28;;;;;;;2.10;1.90;;;;;;;17.51;49.08;98025.34;105275;1262;60413;-38
2023/10/12 02:54:55;;;;;;;2.10;1.90;;;;;;;17.50;49.03;98027.21;105544;1259;60455;-38
2023/10/12 02:57:25;;;;;;;2.90;1.70;;;;;;;17.50;49.10;98024.92;105526;1263;73568;-40
2023/10/12 03:00:12;;;;;;;3.10;1.90;;;;;;;17.50;49.14;98022.77;105487;1259;64821;-38
2023/10/12 03:02:41;;;;;;;1.80;1.70;;;;;;;17.50;49.13;98020.54;105081;1260;72359;-38
2023/10/12 03:05:08;;;;;;;1.90;1.70;;;;;;;17.50;49.12;98016.27;105256;1262;60543;-39
2023/10/12 03:07:37;;;;;;;2.90;1.70;;;;;;;17.50;49.09;98011.70;105136;1262;61269;-38
2023/10/12 03:10:17;;;;;;;2.30;2.10;;;;;;;17.50;49.11;98009.45;105079;1262;72963;-38
2023/10/12 03:12:44;;;;;;;2.50;1.80;;;;;;;17.50;49.10;98007.74;105290;1262;65668;-38
2023/10/12 03:15:14;;;;;;;1.80;1.70;;;;;;;17.49;49.10;98007.42;105434;1261;71344;-38
2023/10/12 03:17:54;;;;;;;1.70;1.60;;;;;;;17.49;49.14;98005.96;105158;1262;60541;-40
2023/10/12 03:20:22;;;;;;;2.30;1.90;;;;;;;17.49;49.11;98007.05;105056;1264;60812;-39
2023/10/12 03:22:52;;;;;;;2.10;1.80;;;;;;;17.49;49.14;98006.19;105448;1260;73511;-39
2023/10/12 03:25:20;;;;;;;2.00;1.80;;;;;;;17.49;49.16;98006.20;105478;1262;65253;-39
2023/10/12 03:27:53;;;;;;;2.00;1.80;;;;;;;17.49;49.10;98004.19;105260;1258;72463;-39
2023/10/12 03:30:24;;;;;;;2.10;1.90;;;;;;;17.49;49.05;98003.55;105103;1262;60540;-39
2023/10/12 03:32:56;;;;;;;2.80;1.80;;;;;;;17.49;49.06;97997.36;105129;1258;60538;-38
2023/10/12 03:35:32;;;;;;;2.30;1.60;;;;;;;17.48;49.04;97994.62;105058;1260;73580;-38
2023/10/12 03:38:12;;;;;;;1.70;1.60;;;;;;;17.49;49.06;97990.55;105142;1262;66004;-40
2023/10/12 03:43:27;;;;;;;2.50;2.00;;;;;;;17.48;49.08;97989.28;105201;1262;60432;-40
2023/10/12 03:49:17;;;;;;;2.80;2.00;;;;;;;17.48;49.06;97983.02;105514;1261;73699;-40
2023/10/12 03:51:41;;;;;;;2.00;1.80;;;;;;;17.48;49.12;97984.09;105300;1263;66143;-39
2023/10/12 03:54:18;;;;;;;2.40;1.80;;;;;;;17.47;49.08;97982.21;105381;1259;72876;-39
2023/10/12 03:56:48;;;;;;;2.60;2.00;;;;;;;17.48;49.07;97981.76;105306;1262;60439;-37
2023/10/12 03:59:27;;;;;;;2.30;1.80;;;;;;;17.47;49.09;97980.12;105458;1260;60547;-38
2023/10/12 04:01:54;;;;;;;2.00;1.80;;;;;;;17.47;49.09;97980.20;105527;1260;74115;-38
2023/10/12 04:04:34;;;;;;;2.10;1.90;;;;;;;17.48;49.09;97979.05;105197;1264;66501;-38
2023/10/12 04:09:31;;;;;;;1.60;1.50;;;;;;;17.47;49.05;97973.08;105120;1262;60591;-38
2023/10/12 04:14:59;;;;;;;1.60;1.50;;;;;;;17.47;49.00;97973.55;104741;1260;73821;-38
2023/10/12 04:23:03;;;;;;;2.50;1.90;;;;;;;17.47;49.06;97973.23;105230;1262;60421;-38
2023/10/12 04:31:20;;;;;;;1.50;1.40;;;;;;;17.47;49.06;97975.15;105243;1262;66203;-38
2023/10/12 04:33:42;;;;;;;2.10;1.90;;;;;;;17.46;48.93;97974.52;105149;1259;73163;-38
2023/10/12 04:36:13;;;;;;;2.40;1.90;;;;;;;17.46;49.06;97970.02;105235;1262;60880;-38
2023/10/12 04:44:06;;;;;;;1.60;1.50;;;;;;;17.46;49.07;97964.16;105098;1262;65260;-38
2023/10/12 04:46:48;;;;;;;2.00;1.60;;;;;;;17.46;49.06;97962.50;105236;1259;72380;-38
2023/10/12 04:52:00;;;;;;;2.00;1.80;;;;;;;17.46;49.01;97965.60;105267;1259;60482;-38
2023/10/12 04:54:28;;;;;;;2.20;1.90;;;;;;;17.45;49.09;97961.87;105302;1259;73523;-39
2023/10/12 04:59:28;;;;;;;2.20;1.70;;;;;;;17.45;49.07;97960.63;105186;1259;72529;-40
2023/10/12 05:02:16;;;;;;;1.70;1.60;;;;;;;17.46;49.10;97960.50;105258;1260;60646;-39
2023/10/12 05:09:39;;;;;;;2.30;1.70;;;;;;;17.45;49.01;97955.22;105162;1262;65843;-38
2023/10/12 05:12:07;;;;;;;1.80;1.60;;;;;;;17.46;49.02;97959.95;105251;1259;72635;-39
2023/10/12 05:14:34;;;;;;;2.40;1.50;;;;;;;17.46;49.12;97963.77;105907;1262;60538;-37
2023/10/12 05:17:01;;;;;;;2.40;1.50;;;;;;;17.46;49.27;97965.43;105195;1259;60528;-38
2023/10/12 05:19:28;;;;;;;3.60;1.50;;;;;;;17.46;49.35;97971.17;105138;1262;73753;-40
2023/10/12 05:21:58;;;;;;;2.00;1.70;;;;;;;17.46;49.64;97970.19;105202;1262;66064;-41
2023/10/12 05:24:25;;;;;;;4.10;2.00;;;;;;;17.47;49.79;97964.64;105082;1259;72486;-41
2023/10/12 05:27:09;;;;;;;3.10;2.00;;;;;;;17.48;49.88;97971.17;105237;1262;60511;-39
2023/10/12 05:29:38;;;;;;;3.10;1.80;;;;;;;17.51;50.13;97965.23;105171;1260;60977;-42
2023/10/12 05:32:05;;;;;;;3.10;1.80;;;;;;;17.57;50.42;97970.34;105070;1264;73714;-39
2023/10/12 05:39:46;;;;;;;3.10;2.00;;;;;;;17.77;51.10;97968.40;105235;1261;61065;-41
2023/10/12 05:42:19;;;;;;;3.60;2.10;;;;;;;17.82;51.25;97965.34;105245;1260;60417;-42
2023/10/12 05:44:49;;;;;;;4.40;2.10;;;;;;;17.84;51.31;97966.52;105173;1258;72641;-41
2023/10/12 05:47:35;;;;;;;3.10;1.90;;;;;;;17.87;51.31;97968.16;105361;1260;65273;-41
2023/10/12 05:50:02;;;;;;;3.30;2.00;;;;;;;17.89;51.24;97972.88;105181;1260;72690;-43
2023/10/12 05:52:33;;;;;;;2.70;1.70;;;;;;;17.91;51.35;97970.69;105197;1262;60551;-41
2023/10/12 05:55:10;;;;;;;2.10;1.90;;;;;;;17.92;51.47;97970.71;105119;1259;60995;-41
2023/10/12 05:57:38;;;;;;;4.20;2.20;;;;;;;17.92;51.46;97969.88;105569;1257;74459;-41
2023/10/12 06:00:11;;;;;;;3.40;2.10;;;;;;;17.94;51.49;97973.48;105174;1262;68483;-41
2023/10/12 06:02:38;;;;;;;3.20;2.30;;;;;;;17.94;51.68;97971.48;107315;1258;71256;-40
2023/10/12 06:05:07;;;;;;;4.30;2.00;;;;;;;17.93;51.40;97970.30;106933;1258;60530;-41
2023/10/12 06:07:37;;;;;;;4.70;1.90;;;;;;;17.93;51.25;97968.83;105150;1262;60355;-41
2023/10/12 06:10:09;;;;;;;2.30;2.10;;;;;;;17.93;51.09;97969.13;105039;1263;73769;-41
2023/10/12 06:12:37;;;;;;;4.20;1.90;;;;;;;17.92;50.98;97970.89;105161;1258;66269;-43
2023/10/12 06:15:09;;;;;;;2.50;2.00;;;;;;;17.90;50.89;97968.97;105271;1259;72449;-43
2023/10/12 06:17:39;;;;;;;4.00;2.10;;;;;;;17.89;50.82;97971.09;105135;1258;60448;-42
2023/10/12 06:20:11;;;;;;;3.70;2.20;;;;;;;17.88;50.59;97971.60;105094;1259;60321;-41
2023/10/12 06:22:38;;;;;;;3.20;2.10;;;;;;;17.87;50.53;97975.20;105215;1259;72578;-41
2023/10/12 06:25:11;;;;;;;2.30;2.10;;;;;;;17.85;50.38;97972.67;105106;1264;67393;-41
2023/10/12 06:27:38;;;;;;;3.20;2.20;;;;;;;17.84;50.09;97968.63;105166;1262;73488;-41
2023/10/12 06:30:16;;;;;;;2.60;2.00;;;;;;;17.84;50.12;97969.91;105030;1264;60448;-39
2023/10/12 06:32:48;;;;;;;3.20;2.10;;;;;;;17.83;50.16;97973.69;105088;1259;60483;-40
2023/10/12 06:35:26;;;;;;;5.40;2.10;;;;;;;17.82;50.01;97973.73;105053;1264;75722;-41
2023/10/12 06:45:47;;;;;;;2.80;1.80;;;;;;;17.81;50.22;97965.64;105338;1259;60951;-37
2023/10/12 06:48:43;;;;;;;3.10;2.30;;;;;;;17.82;50.31;97970.16;105266;1259;72973;-38
2023/10/12 06:51:12;;;;;;;3.00;2.20;;;;;;;17.82;50.30;97968.76;105118;1262;65947;-39
2023/10/12 06:54:06;;;;;;;5.60;2.20;;;;;;;17.83;50.38;97968.65;105261;1260;73152;-39
2023/10/12 06:56:38;;;;;;;3.30;2.20;;;;;;;17.88;50.79;97966.58;105148;1262;60541;-39
2023/10/12 06:59:13;;;;;;;3.90;2.60;;;;;;;17.94;51.43;97968.79;105380;1259;60644;-38
2023/10/12 07:04:25;;;;;;;4.40;2.30;;;;;;;18.06;51.83;97962.35;105059;1262;65290;-39
2023/10/12 07:09:46;;;;;;;5.60;2.20;;;;;;;18.14;51.64;97954.40;105023;1262;60563;-41
2023/10/12 07:12:15;;;;;;;3.40;2.40;;;;;;;18.17;51.71;97954.33;105258;1260;60579;-42
2023/10/12 07:14:53;;;;;;;3.50;2.40;;;;;;;18.18;51.68;97955.01;105192;1258;74606;-40
2023/10/12 07:17:31;;;;;;;3.70;2.00;;;;;;;18.20;51.57;97947.23;105440;1262;64783;-40
2023/10/12 07:19:59;;;;;;;3.90;2.20;;;;;;;18.22;51.53;97955.60;105039;1258;73547;-39
2023/10/12 07:22:26;;;;;;;4.70;2.30;;;;;;;18.24;51.49;97953.02;104902;1260;60467;-39
2023/10/12 07:24:53;;;;;;;6.50;2.20;;;;;;;18.25;51.56;97955.61;105050;1259;60487;-41
2023/10/12 07:27:22;;;;;;;3.50;2.10;;;;;;;18.26;51.25;97960.07;105222;1259;74850;-39
2023/10/12 07:32:40;;;;;;;5.00;2.50;;;;;;;18.27;50.17;97948.77;105119;1259;73493;-39
2023/10/12 07:35:12;;;;;;;3.90;2.30;;;;;;;18.26;49.75;97947.02;105269;1262;60834;-41
2023/10/12 07:37:42;;;;;;;9.90;2.30;;;;;;;18.25;49.58;97946.16;105283;1262;60306;-40
2023/10/12 07:40:19;;;;;;;10.00;2.50;;;;;;;18.23;49.76;97944.71;105170;1259;73612;-46
2023/10/12 07:42:49;;;;;;;4.00;2.20;;;;;;;18.23;50.13;97946.78;104969;1262;65120;-39
2023/10/12 07:45:17;;;;;;;3.60;2.30;;;;;;;18.25;50.44;97943.89;105044;1259;71564;-40
2023/10/12 07:47:46;;;;;;;7.00;2.00;;;;;;;18.26;50.92;97941.61;105064;1262;60624;-38
2023/10/12 07:50:13;;;;;;;4.90;2.40;;;;;;;18.28;51.31;97935.92;105082;1259;60931;-37
2023/10/12 07:55:18;;;;;;;7.50;2.90;;;;;;;18.32;51.72;97934.59;105160;1259;66757;-41
2023/10/12 07:57:46;;;;;;;13.90;2.30;;;;;;;18.34;51.76;97934.11;105148;1259;72567;-42
2023/10/12 08:13:15;;;;;;;10.50;2.40;;;;;;;18.43;50.95;97923.71;105310;1257;60559;-41
2023/10/12 08:21:26;;;;;;;13.00;2.60;;;;;;;18.46;50.46;97924.20;105258;1262;67507;-41
2023/10/12 08:26:47;;;;;;;8.80;2.30;;;;;;;18.48;50.76;97926.02;105493;1264;60860;-43
2023/10/12 08:30:10;;;;;;;13.10;2.40;;;;;;;18.49;50.92;97930.41;105061;1259;61128;-42
2023/10/12 08:35:10;;;;;;;9.50;2.60;;;;;;;18.51;51.14;97934.26;105317;1262;66213;-37
2023/10/12 08:38:32;;;;;;;12.50;2.50;;;;;;;18.53;51.34;97936.09;105218;1258;72903;-43
2023/10/12 08:43:43;;;;;;;10.10;2.40;;;;;;;18.57;51.66;97927.61;105280;1259;60557;-42
2023/10/12 08:46:12;;;;;;;13.30;2.40;;;;;;;18.58;51.59;97930.98;105231;1260;73790;-41
2023/10/12 08:48:53;;;;;;;10.90;2.70;;;;;;;18.60;51.55;97932.58;104959;1262;185289;-40
2023/10/12 08:52:04;;;;;;;9.70;2.20;;;;;;;18.61;51.43;97933.00;105169;1265;74318;-43
2023/10/12 08:54:37;;;;;;;5.50;2.00;;;;;;;18.62;51.51;97930.77;104884;1266;60544;-42
2023/10/12 08:57:12;;;;;;;9.40;2.10;;;;;;;18.63;51.75;97930.05;105051;1259;60653;-42
2023/10/12 08:59:39;;;;;;;14.80;2.50;;;;;;;18.65;51.83;97933.14;105058;1258;72520;-41
2023/10/12 09:02:18;;;;;;;14.40;2.50;;;;;;;18.67;51.85;97930.16;104961;1262;65267;-40
2023/10/12 09:15:45;;;;;;;6.50;2.10;;;;;;;18.75;51.82;97921.88;104816;1262;60437;-39
2023/10/12 09:18:14;;;;;;;8.30;2.20;;;;;;;18.76;51.89;97915.85;105050;1262;74513;-39
2023/10/12 09:20:45;;;;;;;5.00;2.20;;;;;;;18.78;51.86;97915.93;105118;1262;65948;-40
2023/10/12 09:23:15;;;;;;;7.30;2.00;;;;;;;18.79;51.82;97912.45;105062;1258;73390;-36
2023/10/12 09:28:42;;;;;;;5.80;1.70;;;;;;;18.81;51.74;97906.23;105641;1256;61925;-38
2023/10/12 09:31:13;;;;;;;5.80;1.90;;;;;;;18.82;51.73;97906.86;105278;1260;73985;-38
2023/10/12 09:36:29;;;;;;;9.00;1.90;;;;;;;18.84;51.64;97894.29;105061;1259;72662;-37
2023/10/12 09:38:57;;;;;;;6.00;2.00;;;;;;;18.84;51.63;97891.42;105125;1260;60368;-39
2023/10/12 09:41:33;;;;;;;4.20;2.10;;;;;;;18.88;51.79;97884.53;105029;1257;60454;-39
2023/10/12 09:44:04;;;;;;;4.70;2.10;;;;;;;18.92;52.22;97875.45;105239;1262;74609;-38
2023/10/12 09:46:34;;;;;;;7.40;2.80;;;;;;;18.98;52.35;97867.77;105638;1263;65375;-40
2023/10/12 09:49:06;;;;;;;5.80;1.80;;;;;;;19.03;52.48;97864.05;105173;1256;72624;-38
2023/10/12 09:51:38;;;;;;;8.60;2.20;;;;;;;19.08;52.62;97861.05;105675;1260;60470;-37
2023/10/12 09:54:15;;;;;;;4.90;2.00;;;;;;;19.12;52.81;97861.86;105131;1258;60527;-38
2023/10/12 09:56:46;;;;;;;4.40;2.40;;;;;;;19.16;52.87;97860.71;105260;1259;74705;-37
2023/10/12 09:59:18;;;;;;;4.50;2.30;;;;;;;19.20;52.82;97867.56;104990;1263;67095;-39
2023/10/12 10:01:49;;;;;;;4.60;2.20;;;;;;;19.23;52.88;97860.33;105209;1258;72541;-39
2023/10/12 10:09:47;;;;;;;9.30;2.00;;;;;;;19.30;52.65;97844.55;105124;1261;73660;-37
2023/10/12 10:12:18;;;;;;;8.60;1.70;;;;;;;19.32;52.63;97851.80;104892;1261;66259;-40
2023/10/12 10:14:57;;;;;;;6.40;2.40;;;;;;;19.33;52.76;97855.80;105086;1257;73522;-38
2023/10/12 10:17:24;;;;;;;9.60;2.30;;;;;;;19.35;52.70;97852.80;105335;1256;60444;-39
2023/10/12 10:20:14;;;;;;;7.30;2.20;;;;;;;19.35;52.63;97852.68;108205;1257;61114;-39
2023/10/12 10:22:44;;;;;;;7.60;2.10;;;;;;;19.36;52.57;97854.72;105630;1256;73159;-40
2023/10/12 10:25:17;;;;;;;6.10;2.30;;;;;;;19.36;52.50;97846.34;105235;1261;66763;-38
2023/10/12 10:27:44;;;;;;;6.20;2.20;;;;;;;19.36;52.40;97843.48;105012;1260;71461;-38
2023/10/12 10:30:24;;;;;;;5.90;2.00;;;;;;;19.35;52.29;97840.79;105088;1261;61179;-39
2023/10/12 10:33:12;;;;;;;4.70;2.00;;;;;;;19.34;52.27;97832.46;108892;1258;59246;-39
2023/10/12 10:36:00;;;;;;;4.40;1.90;;;;;;;19.33;52.17;97827.79;109024;1257;74404;-38
2023/10/12 10:38:32;;;;;;;5.70;2.20;;;;;;;19.33;52.14;97825.08;109010;1258;65371;-40
2023/10/12 10:41:18;;;;;;;11.10;2.40;;;;;;;19.34;52.10;97815.63;105448;1259;72516;-40
2023/10/12 10:43:46;;;;;;;6.00;1.90;;;;;;;19.34;52.25;97811.20;105302;1262;60557;-41
2023/10/12 10:46:16;;;;;;;7.60;2.20;;;;;;;19.35;52.33;97809.61;105784;1259;60372;-41
2023/10/12 10:48:53;;;;;;;3.60;1.90;;;;;;;19.36;52.50;97812.60;105217;1257;74624;-39
2023/10/12 10:51:28;;;;;;;6.00;2.40;;;;;;;19.37;52.57;97820.23;105227;1263;67084;-41
2023/10/12 10:53:55;;;;;;;3.30;2.00;;;;;;;19.38;52.63;97819.93;105248;1260;73638;-38
2023/10/12 10:56:36;;;;;;;7.20;2.20;;;;;;;19.37;52.81;97819.07;105337;1262;60635;-40
2023/10/12 11:04:43;;;;;;;4.60;2.10;;;;;;;19.38;53.03;97810.41;103997;1261;73938;-40
2023/10/12 11:07:14;;;;;;;12.70;2.00;;;;;;;19.38;53.15;97814.91;105185;1262;67438;-45
2023/10/12 11:12:31;;;;;;;7.00;1.60;;;;;;;19.41;53.16;97806.91;105196;1262;60445;-42
2023/10/12 11:14:58;;;;;;;3.60;1.90;;;;;;;19.42;53.11;97801.65;105339;1262;60974;-39
2023/10/12 11:22:12;;;;;;;6.10;2.00;;;;;;;19.47;53.16;97796.17;105164;1262;64818;-37
2023/10/12 11:24:45;;;;;;;4.20;1.80;;;;;;;19.48;53.44;97800.56;105170;1257;72560;-37
2023/10/12 11:27:28;;;;;;;7.60;1.80;;;;;;;19.49;53.39;97804.93;105172;1260;61704;-38
2023/10/12 11:29:55;;;;;;;4.90;2.00;;;;;;;19.49;53.40;97802.69;105180;1257;60347;-40
2023/10/12 11:32:24;;;;;;;6.10;1.90;;;;;;;19.51;53.40;97803.10;105286;1262;74847;-38
2023/10/12 11:34:52;;;;;;;5.10;1.60;;;;;;;19.50;53.44;97801.39;105158;1262;66498;-36
2023/10/12 11:37:19;;;;;;;4.30;1.90;;;;;;;19.51;53.49;97797.98;108990;1256;73692;-38
2023/10/12 11:39:46;;;;;;;6.70;2.00;;;;;;;19.53;53.58;97801.20;109033;1257;60457;-38
2023/10/12 11:42:13;;;;;;;6.80;2.10;;;;;;;19.55;53.47;97794.59;108506;1260;60280;-38
2023/10/12 11:44:45;;;;;;;3.70;1.90;;;;;;;19.56;53.40;97794.45;107421;1258;73663;-39
2023/10/12 11:47:41;;;;;;;6.70;1.80;;;;;;;19.57;53.50;97794.94;105482;1259;68339;-39
2023/10/12 11:50:13;;;;;;;;;;;;;;;19.58;53.54;97792.55;105835;1262;72745;-38
2023/10/12 11:52:40;;;;;;;7.60;1.90;;;;;;;19.59;53.60;97796.31;105393;1261;61122;-39
2023/10/12 11:55:18;;;;;;;5.00;2.10;;;;;;;19.59;53.51;97792.66;105240;1256;60455;-39
2023/10/12 11:57:54;;;;;;;6.70;1.80;;;;;;;19.58;53.60;97795.29;105291;1262;74714;-38
2023/10/12 12:00:21;;;;;;;4.40;2.50;;;;;;;19.59;53.63;97796.77;105170;1263;68638;-38
2023/10/12 12:02:52;;;;;;;4.80;2.00;;;;;;;19.61;54.08;97793.56;105217;1262;73116;-40
2023/10/12 12:05:21;;;;;;;7.70;2.40;;;;;;;19.65;54.19;97791.72;105311;1262;60550;-39
2023/10/12 12:07:51;;;;;;;8.70;2.60;;;;;;;19.69;54.26;97780.40;105389;1262;61166;-40
2023/10/12 12:10:27;;;;;;;5.40;2.20;;;;;;;19.73;53.94;97777.92;105152;1260;72611;-39
2023/10/12 12:12:57;;;;;;;14.00;2.60;;;;;;;19.75;53.66;97783.34;105194;1263;66083;-39
2023/10/12 12:15:24;;;;;;;10.20;2.70;;;;;;;19.78;53.75;97776.27;105307;1259;73445;-38
2023/10/12 12:17:52;;;;;;;8.50;2.60;;;;;;;19.82;53.86;97775.41;105078;1262;61399;-36
2023/10/12 12:20:22;;;;;;;8.50;2.40;;;;;;;19.85;53.90;97779.66;105276;1262;60319;-39
2023/10/12 12:22:49;;;;;;;6.90;2.30;;;;;;;19.87;53.80;97779.25;105408;1261;73711;-39
2023/10/12 12:25:31;;;;;;;6.40;2.10;;;;;;;19.90;53.79;97775.80;105203;1262;66207;-39
2023/10/12 12:28:03;;;;;;;7.80;2.30;;;;;;;19.92;53.62;97771.36;105510;1262;72532;-39
2023/10/12 12:30:35;;;;;;;4.20;2.00;;;;;;;19.92;53.55;97764.77;105235;1262;60452;-39
2023/10/12 12:33:23;;;;;;;5.30;2.20;;;;;;;19.92;53.56;97762.59;105322;1259;60777;-38
2023/10/12 12:35:59;;;;;;;8.30;2.00;;;;;;;19.92;53.47;97768.88;105230;1260;74603;-37
2023/10/12 12:40:54;;;;;;;6.60;2.10;;;;;;;19.94;53.42;97760.22;105023;1260;73415;-39
2023/10/12 12:43:22;;;;;;;5.60;2.10;;;;;;;19.95;53.41;97756.59;105365;1263;60455;-35
2023/10/12 12:45:48;;;;;;;7.60;2.00;;;;;;;19.95;53.37;97754.27;105230;1259;60365;-37
2023/10/12 12:48:15;;;;;;;4.40;2.30;;;;;;;19.95;53.35;97756.50;105888;1258;74135;-38
2023/10/12 12:50:45;;;;;;;11.00;2.20;;;;;;;19.94;53.30;97752.84;105103;1262;60371;-40
2023/10/12 12:53:12;;;;;;;4.80;2.10;;;;;;;19.94;53.39;97752.67;105142;1259;73237;-39
2023/10/12 12:55:38;;;;;;;7.20;1.90;;;;;;;19.93;53.34;97746.38;104982;1262;60458;-38
2023/10/12 12:58:06;;;;;;;6.60;2.00;;;;;;;19.93;53.43;97747.44;106108;1259;60365;-36
2023/10/12 13:00:35;;;;;;;4.00;2.20;;;;;;;19.92;53.29;97754.02;105223;1262;73728;-38
2023/10/12 13:03:04;;;;;;;9.40;1.90;;;;;;;19.90;53.43;97755.01;105171;1263;66095;-37
2023/10/12 13:05:33;;;;;;;8.20;2.10;;;;;;;19.89;53.32;97754.98;105209;1260;72223;-37
2023/10/12 13:08:00;;;;;;;4.30;2.20;;;;;;;19.87;53.36;97753.07;105245;1262;60832;-38
2023/10/12 13:10:28;;;;;;;4.70;2.10;;;;;;;19.85;53.37;97743.79;108963;1258;59414;-38
2023/10/12 13:12:54;;;;;;;4.90;1.70;;;;;;;19.84;53.31;97743.23;107311;1257;74647;-38
2023/10/12 13:15:23;;;;;;;7.60;2.10;;;;;;;19.83;53.27;97744.61;105200;1262;64973;-39
2023/10/12 13:17:49;;;;;;;3.60;1.90;;;;;;;19.83;53.22;97749.02;105321;1260;72322;-41
2023/10/12 13:20:22;;;;;;;6.60;2.60;;;;;;;19.82;53.10;97747.67;105366;1262;60421;-39
2023/10/12 13:22:49;;;;;;;4.90;2.00;;;;;;;19.80;53.17;97746.73;105210;1259;60607;-40
2023/10/12 13:25:19;;;;;;;6.20;2.10;;;;;;;19.79;53.00;97744.91;105448;1260;73581;-40
2023/10/12 13:27:49;;;;;;;9.60;2.20;;;;;;;19.79;53.02;97748.86;105405;1262;68424;-39
2023/10/12 13:30:15;;;;;;;5.50;2.30;;;;;;;19.77;52.93;97748.29;105209;1259;72528;-42
2023/10/12 13:32:42;;;;;;;4.90;2.10;;;;;;;19.75;53.05;97746.85;105082;1264;60517;-37
2023/10/12 13:35:28;;;;;;;4.80;1.80;;;;;;;19.75;52.84;97751.80;105207;1258;61197;-38
2023/10/12 13:37:58;;;;;;;4.40;2.00;;;;;;;19.72;52.94;97747.94;105446;1258;74284;-39
2023/10/12 13:40:26;;;;;;;3.30;2.00;;;;;;;19.69;52.90;97749.66;105274;1261;66078;-37
2023/10/12 13:45:56;;;;;;;4.90;2.30;;;;;;;19.64;52.84;97741.02;104926;1262;60534;-39
2023/10/12 13:48:29;;;;;;;4.40;2.00;;;;;;;19.62;52.80;97736.83;105608;1256;60466;-40
2023/10/12 13:51:04;;;;;;;2.90;1.80;;;;;;;19.62;52.70;97739.33;105506;1259;73661;-40
2023/10/12 13:53:36;;;;;;;4.80;2.10;;;;;;;19.60;52.76;97740.30;105288;1262;66896;-39
2023/10/12 13:56:08;;;;;;;4.50;2.10;;;;;;;19.60;52.64;97737.02;105239;1261;71744;-38
2023/10/12 13:58:36;;;;;;;3.30;1.90;;;;;;;19.59;52.72;97737.79;105269;1260;60557;-41
2023/10/12 14:01:04;;;;;;;3.70;1.90;;;;;;;19.57;52.71;97741.39;105127;1260;60451;-39
2023/10/12 14:03:38;;;;;;;5.80;2.50;;;;;;;19.56;52.78;97739.64;105066;1260;74421;-38
2023/10/12 14:06:06;;;;;;;5.50;2.20;;;;;;;19.55;52.73;97747.07;106896;1260;66154;-40
2023/10/12 14:08:35;;;;;;;4.80;1.90;;;;;;;19.53;52.76;97746.20;105199;1258;72500;-39
2023/10/12 14:11:06;;;;;;;5.90;2.20;;;;;;;19.51;52.68;97749.41;105261;1263;60444;-39
2023/10/12 14:13:33;;;;;;;8.40;2.40;;;;;;;19.49;52.71;97746.95;105275;1262;60556;-39
2023/10/12 14:16:00;;;;;;;4.90;2.00;;;;;;;19.47;52.77;97749.16;105307;1262;73798;-38
2023/10/12 14:18:31;;;;;;;2.60;1.70;;;;;;;19.46;52.68;97754.34;105323;1262;66293;-39